sensor_id;sensor_type;location;lat;lon;timestamp;P1;durP1;ratioP1;P2;durP2;ratioP2
54545;SDS011;40444;45.184;9.850;2022-07-23T00:00:37;21.20;;;18.92;;
54545;SDS011;40444;45.184;9.850;2022-07-23T00:03:06;19.40;;;17.50;;
54545;SDS011;40444;45.184;9.850;2022-07-23T00:05:35;19.15;;;17.35;;
54545;SDS011;40444;45.184;9.850;2022-07-23T00:08:05;20.67;;;18.52;;
54545;SDS011;40444;45.184;9.850;2022-07-23T00:10:40;18.88;;;16.88;;
54545;SDS011;40444;45.184;9.850;2022-07-23T00:13:09;20.13;;;18.10;;
54545;SDS011;40444;45.184;9.850;2022-07-23T00:15:38;19.08;;;17.10;;
54545;SDS011;40444;45.184;9.850;2022-07-23T00:18:07;19.55;;;17.65;;
54545;SDS011;40444;45.184;9.850;2022-07-23T00:20:35;19.23;;;17.27;;
54545;SDS011;40444;45.184;9.850;2022-07-23T00:23:04;23.23;;;18.77;;
54545;SDS011;40444;45.184;9.850;2022-07-23T00:25:32;21.33;;;18.45;;
54545;SDS011;40444;45.184;9.850;2022-07-23T00:28:01;20.05;;;17.90;;
54545;SDS011;40444;45.184;9.850;2022-07-23T00:30:31;18.70;;;16.70;;
54545;SDS011;40444;45.184;9.850;2022-07-23T00:33:01;18.17;;;16.48;;
54545;SDS011;40444;45.184;9.850;2022-07-23T00:35:35;18.65;;;16.88;;
54545;SDS011;40444;45.184;9.850;2022-07-23T00:38:09;22.25;;;20.13;;
54545;SDS011;40444;45.184;9.850;2022-07-23T00:40:38;23.98;;;21.50;;
54545;SDS011;40444;45.184;9.850;2022-07-23T00:43:07;22.73;;;20.55;;
54545;SDS011;40444;45.184;9.850;2022-07-23T00:45:36;22.05;;;20.05;;
54545;SDS011;40444;45.184;9.850;2022-07-23T00:48:06;23.33;;;21.13;;
54545;SDS011;40444;45.184;9.850;2022-07-23T00:50:35;23.67;;;21.42;;
54545;SDS011;40444;45.184;9.850;2022-07-23T00:53:04;23.17;;;20.98;;
54545;SDS011;40444;45.184;9.850;2022-07-23T00:55:34;24.20;;;21.85;;
54545;SDS011;40444;45.184;9.850;2022-07-23T00:58:02;25.02;;;22.77;;
54545;SDS011;40444;45.184;9.850;2022-07-23T01:00:31;23.58;;;21.48;;
54545;SDS011;40444;45.184;9.850;2022-07-23T01:02:59;27.40;;;24.35;;
54545;SDS011;40444;45.184;9.850;2022-07-23T01:05:28;26.70;;;23.35;;
54545;SDS011;40444;45.184;9.850;2022-07-23T01:07:56;26.90;;;24.23;;
54545;SDS011;40444;45.184;9.850;2022-07-23T01:10:25;26.27;;;23.80;;
54545;SDS011;40444;45.184;9.850;2022-07-23T01:13:05;25.35;;;22.70;;
54545;SDS011;40444;45.184;9.850;2022-07-23T01:15:36;26.88;;;24.25;;
54545;SDS011;40444;45.184;9.850;2022-07-23T01:18:07;25.42;;;23.02;;
54545;SDS011;40444;45.184;9.850;2022-07-23T01:20:37;25.25;;;22.85;;
54545;SDS011;40444;45.184;9.850;2022-07-23T01:23:07;25.35;;;22.88;;
54545;SDS011;40444;45.184;9.850;2022-07-23T01:25:51;25.38;;;23.05;;
54545;SDS011;40444;45.184;9.850;2022-07-23T01:28:22;26.73;;;24.25;;
54545;SDS011;40444;45.184;9.850;2022-07-23T01:30:51;25.75;;;23.35;;
54545;SDS011;40444;45.184;9.850;2022-07-23T01:33:20;28.30;;;25.40;;
54545;SDS011;40444;45.184;9.850;2022-07-23T01:35:49;31.02;;;24.80;;
54545;SDS011;40444;45.184;9.850;2022-07-23T01:38:22;25.23;;;22.85;;
54545;SDS011;40444;45.184;9.850;2022-07-23T01:40:51;23.70;;;21.58;;
54545;SDS011;40444;45.184;9.850;2022-07-23T01:43:26;27.73;;;24.63;;
54545;SDS011;40444;45.184;9.850;2022-07-23T01:45:56;29.42;;;26.55;;
54545;SDS011;40444;45.184;9.850;2022-07-23T01:48:30;30.65;;;27.75;;
54545;SDS011;40444;45.184;9.850;2022-07-23T01:51:18;28.65;;;25.77;;
54545;SDS011;40444;45.184;9.850;2022-07-23T01:53:56;28.80;;;25.75;;
54545;SDS011;40444;45.184;9.850;2022-07-23T01:56:25;28.35;;;25.50;;
54545;SDS011;40444;45.184;9.850;2022-07-23T01:58:54;28.90;;;26.10;;
54545;SDS011;40444;45.184;9.850;2022-07-23T02:01:23;28.08;;;25.50;;
54545;SDS011;40444;45.184;9.850;2022-07-23T02:03:52;28.13;;;25.33;;
54545;SDS011;40444;45.184;9.850;2022-07-23T02:06:21;28.48;;;25.88;;
54545;SDS011;40444;45.184;9.850;2022-07-23T02:08:50;27.90;;;25.30;;
54545;SDS011;40444;45.184;9.850;2022-07-23T02:11:21;29.10;;;26.27;;
54545;SDS011;40444;45.184;9.850;2022-07-23T02:13:50;28.48;;;25.80;;
54545;SDS011;40444;45.184;9.850;2022-07-23T02:16:21;27.38;;;24.75;;
54545;SDS011;40444;45.184;9.850;2022-07-23T02:18:50;27.48;;;24.98;;
54545;SDS011;40444;45.184;9.850;2022-07-23T02:21:19;26.77;;;24.27;;
54545;SDS011;40444;45.184;9.850;2022-07-23T02:23:48;26.23;;;23.85;;
54545;SDS011;40444;45.184;9.850;2022-07-23T02:26:18;27.80;;;25.15;;
54545;SDS011;40444;45.184;9.850;2022-07-23T02:28:50;27.48;;;24.70;;
54545;SDS011;40444;45.184;9.850;2022-07-23T02:31:21;26.08;;;23.42;;
54545;SDS011;40444;45.184;9.850;2022-07-23T02:33:50;25.30;;;22.90;;
54545;SDS011;40444;45.184;9.850;2022-07-23T02:36:19;26.58;;;22.80;;
54545;SDS011;40444;45.184;9.850;2022-07-23T02:38:48;25.52;;;23.15;;
54545;SDS011;40444;45.184;9.850;2022-07-23T02:41:16;25.42;;;22.92;;
54545;SDS011;40444;45.184;9.850;2022-07-23T02:43:45;26.58;;;23.98;;
54545;SDS011;40444;45.184;9.850;2022-07-23T02:46:15;25.23;;;23.00;;
54545;SDS011;40444;45.184;9.850;2022-07-23T02:48:44;25.77;;;23.27;;
54545;SDS011;40444;45.184;9.850;2022-07-23T02:51:13;27.02;;;24.40;;
54545;SDS011;40444;45.184;9.850;2022-07-23T02:53:50;25.75;;;23.25;;
54545;SDS011;40444;45.184;9.850;2022-07-23T02:56:20;25.08;;;22.85;;
54545;SDS011;40444;45.184;9.850;2022-07-23T02:58:49;26.70;;;22.50;;
54545;SDS011;40444;45.184;9.850;2022-07-23T03:01:18;26.17;;;23.00;;
54545;SDS011;40444;45.184;9.850;2022-07-23T03:03:47;25.25;;;22.75;;
54545;SDS011;40444;45.184;9.850;2022-07-23T03:06:16;25.77;;;23.13;;
54545;SDS011;40444;45.184;9.850;2022-07-23T03:08:45;26.95;;;24.20;;
54545;SDS011;40444;45.184;9.850;2022-07-23T03:11:14;27.80;;;24.90;;
54545;SDS011;40444;45.184;9.850;2022-07-23T03:13:43;26.38;;;23.85;;
54545;SDS011;40444;45.184;9.850;2022-07-23T03:16:12;28.00;;;25.40;;
54545;SDS011;40444;45.184;9.850;2022-07-23T03:18:41;27.80;;;25.02;;
54545;SDS011;40444;45.184;9.850;2022-07-23T03:21:10;28.42;;;25.45;;
54545;SDS011;40444;45.184;9.850;2022-07-23T03:23:38;28.15;;;25.30;;
54545;SDS011;40444;45.184;9.850;2022-07-23T03:26:07;27.50;;;24.73;;
54545;SDS011;40444;45.184;9.850;2022-07-23T03:28:35;26.63;;;24.08;;
54545;SDS011;40444;45.184;9.850;2022-07-23T03:31:05;27.15;;;24.63;;
54545;SDS011;40444;45.184;9.850;2022-07-23T03:33:39;28.20;;;25.50;;
54545;SDS011;40444;45.184;9.850;2022-07-23T03:36:09;28.50;;;25.48;;
54545;SDS011;40444;45.184;9.850;2022-07-23T03:38:42;29.45;;;25.95;;
54545;SDS011;40444;45.184;9.850;2022-07-23T03:41:11;28.05;;;24.88;;
54545;SDS011;40444;45.184;9.850;2022-07-23T03:43:40;29.13;;;26.33;;
54545;SDS011;40444;45.184;9.850;2022-07-23T03:46:11;29.48;;;26.60;;
54545;SDS011;40444;45.184;9.850;2022-07-23T03:48:39;29.33;;;26.60;;
54545;SDS011;40444;45.184;9.850;2022-07-23T03:51:08;30.52;;;27.48;;
54545;SDS011;40444;45.184;9.850;2022-07-23T03:53:37;29.48;;;26.58;;
54545;SDS011;40444;45.184;9.850;2022-07-23T03:56:06;31.70;;;28.45;;
54545;SDS011;40444;45.184;9.850;2022-07-23T03:58:34;29.83;;;26.80;;
54545;SDS011;40444;45.184;9.850;2022-07-23T04:01:03;29.67;;;26.85;;
54545;SDS011;40444;45.184;9.850;2022-07-23T04:03:32;31.10;;;27.88;;
54545;SDS011;40444;45.184;9.850;2022-07-23T04:06:01;31.33;;;28.17;;
54545;SDS011;40444;45.184;9.850;2022-07-23T04:08:30;31.42;;;27.48;;
54545;SDS011;40444;45.184;9.850;2022-07-23T04:11:00;30.08;;;27.23;;
54545;SDS011;40444;45.184;9.850;2022-07-23T04:13:29;28.83;;;25.95;;
54545;SDS011;40444;45.184;9.850;2022-07-23T04:15:58;30.27;;;27.10;;
54545;SDS011;40444;45.184;9.850;2022-07-23T04:18:28;29.58;;;26.55;;
54545;SDS011;40444;45.184;9.850;2022-07-23T04:21:12;28.90;;;26.10;;
54545;SDS011;40444;45.184;9.850;2022-07-23T04:23:41;30.23;;;27.08;;
54545;SDS011;40444;45.184;9.850;2022-07-23T04:26:11;29.13;;;26.38;;
54545;SDS011;40444;45.184;9.850;2022-07-23T04:28:46;30.38;;;27.17;;
54545;SDS011;40444;45.184;9.850;2022-07-23T04:31:16;30.90;;;27.92;;
54545;SDS011;40444;45.184;9.850;2022-07-23T04:33:45;28.85;;;25.88;;
54545;SDS011;40444;45.184;9.850;2022-07-23T04:36:14;30.67;;;27.88;;
54545;SDS011;40444;45.184;9.850;2022-07-23T04:38:42;29.58;;;26.70;;
54545;SDS011;40444;45.184;9.850;2022-07-23T04:41:17;30.23;;;27.42;;
54545;SDS011;40444;45.184;9.850;2022-07-23T04:43:46;30.55;;;27.50;;
54545;SDS011;40444;45.184;9.850;2022-07-23T04:46:14;31.15;;;27.98;;
54545;SDS011;40444;45.184;9.850;2022-07-23T04:48:48;29.02;;;26.10;;
54545;SDS011;40444;45.184;9.850;2022-07-23T04:51:17;33.70;;;27.10;;
54545;SDS011;40444;45.184;9.850;2022-07-23T04:53:46;49.20;;;28.65;;
54545;SDS011;40444;45.184;9.850;2022-07-23T04:56:15;68.57;;;29.45;;
54545;SDS011;40444;45.184;9.850;2022-07-23T04:58:44;60.97;;;29.63;;
54545;SDS011;40444;45.184;9.850;2022-07-23T05:01:13;54.42;;;28.65;;
54545;SDS011;40444;45.184;9.850;2022-07-23T05:03:42;43.13;;;28.98;;
54545;SDS011;40444;45.184;9.850;2022-07-23T05:06:10;48.30;;;29.45;;
54545;SDS011;40444;45.184;9.850;2022-07-23T05:08:39;40.88;;;27.80;;
54545;SDS011;40444;45.184;9.850;2022-07-23T21:38:40;7.47;;;5.57;;
54545;SDS011;40444;45.184;9.850;2022-07-23T21:41:09;7.13;;;5.80;;
54545;SDS011;40444;45.184;9.850;2022-07-23T21:43:38;8.07;;;5.38;;
54545;SDS011;40444;45.184;9.850;2022-07-23T21:46:07;8.52;;;5.72;;
54545;SDS011;40444;45.184;9.850;2022-07-23T21:48:35;8.65;;;6.28;;
54545;SDS011;40444;45.184;9.850;2022-07-23T21:51:06;6.90;;;5.90;;
54545;SDS011;40444;45.184;9.850;2022-07-23T21:53:35;9.73;;;6.10;;
54545;SDS011;40444;45.184;9.850;2022-07-23T21:56:04;7.15;;;5.80;;
54545;SDS011;40444;45.184;9.850;2022-07-23T21:58:32;7.55;;;5.53;;
54545;SDS011;40444;45.184;9.850;2022-07-23T22:01:01;7.93;;;6.00;;
54545;SDS011;40444;45.184;9.850;2022-07-23T22:03:29;7.40;;;5.90;;
54545;SDS011;40444;45.184;9.850;2022-07-23T22:05:58;7.28;;;5.78;;
54545;SDS011;40444;45.184;9.850;2022-07-23T22:08:27;7.68;;;5.80;;
54545;SDS011;40444;45.184;9.850;2022-07-23T22:10:56;7.15;;;5.93;;
54545;SDS011;40444;45.184;9.850;2022-07-23T22:13:24;6.35;;;4.75;;
54545;SDS011;40444;45.184;9.850;2022-07-23T22:15:53;8.50;;;5.53;;
54545;SDS011;40444;45.184;9.850;2022-07-23T22:18:22;7.78;;;5.90;;
54545;SDS011;40444;45.184;9.850;2022-07-23T22:20:51;8.30;;;5.57;;
54545;SDS011;40444;45.184;9.850;2022-07-23T22:23:23;7.45;;;6.00;;
54545;SDS011;40444;45.184;9.850;2022-07-23T22:25:51;8.05;;;6.00;;
54545;SDS011;40444;45.184;9.850;2022-07-23T22:28:20;7.28;;;6.35;;
54545;SDS011;40444;45.184;9.850;2022-07-23T22:30:48;8.32;;;6.30;;
54545;SDS011;40444;45.184;9.850;2022-07-23T22:33:17;7.57;;;5.85;;
54545;SDS011;40444;45.184;9.850;2022-07-23T22:35:46;6.57;;;5.97;;
54545;SDS011;40444;45.184;9.850;2022-07-23T22:38:15;8.55;;;6.55;;
54545;SDS011;40444;45.184;9.850;2022-07-23T22:40:43;8.88;;;6.25;;
54545;SDS011;40444;45.184;9.850;2022-07-23T22:43:12;8.27;;;6.60;;
54545;SDS011;40444;45.184;9.850;2022-07-23T22:45:40;10.43;;;5.95;;
54545;SDS011;40444;45.184;9.850;2022-07-23T22:48:09;11.82;;;6.18;;
54545;SDS011;40444;45.184;9.850;2022-07-23T22:50:38;13.52;;;6.38;;
54545;SDS011;40444;45.184;9.850;2022-07-23T22:53:06;14.20;;;6.50;;
54545;SDS011;40444;45.184;9.850;2022-07-23T22:55:35;12.85;;;6.60;;
54545;SDS011;40444;45.184;9.850;2022-07-23T22:58:03;19.30;;;8.05;;
54545;SDS011;40444;45.184;9.850;2022-07-23T23:00:32;13.20;;;6.93;;
54545;SDS011;40444;45.184;9.850;2022-07-23T23:03:03;11.85;;;6.63;;
54545;SDS011;40444;45.184;9.850;2022-07-23T23:05:32;11.82;;;7.00;;
54545;SDS011;40444;45.184;9.850;2022-07-23T23:08:01;7.97;;;7.18;;
54545;SDS011;40444;45.184;9.850;2022-07-23T23:10:29;7.82;;;6.50;;
54545;SDS011;40444;45.184;9.850;2022-07-23T23:12:58;7.43;;;6.00;;
54545;SDS011;40444;45.184;9.850;2022-07-23T23:15:26;7.72;;;6.10;;
54545;SDS011;40444;45.184;9.850;2022-07-23T23:17:55;7.85;;;6.40;;
54545;SDS011;40444;45.184;9.850;2022-07-23T23:20:24;7.32;;;6.60;;
54545;SDS011;40444;45.184;9.850;2022-07-23T23:22:52;8.98;;;7.28;;
54545;SDS011;40444;45.184;9.850;2022-07-23T23:25:21;7.38;;;6.38;;
54545;SDS011;40444;45.184;9.850;2022-07-23T23:27:49;8.07;;;6.10;;
54545;SDS011;40444;45.184;9.850;2022-07-23T23:30:18;7.10;;;6.43;;
54545;SDS011;40444;45.184;9.850;2022-07-23T23:32:46;8.43;;;6.22;;
54545;SDS011;40444;45.184;9.850;2022-07-23T23:35:15;10.27;;;7.00;;
54545;SDS011;40444;45.184;9.850;2022-07-23T23:37:43;9.65;;;7.30;;
54545;SDS011;40444;45.184;9.850;2022-07-23T23:40:12;8.18;;;7.10;;
54545;SDS011;40444;45.184;9.850;2022-07-23T23:42:41;7.43;;;6.70;;
54545;SDS011;40444;45.184;9.850;2022-07-23T23:45:10;7.22;;;6.53;;
54545;SDS011;40444;45.184;9.850;2022-07-23T23:47:39;8.63;;;7.05;;
54545;SDS011;40444;45.184;9.850;2022-07-23T23:50:08;10.55;;;6.82;;
54545;SDS011;40444;45.184;9.850;2022-07-23T23:52:36;9.02;;;7.32;;
54545;SDS011;40444;45.184;9.850;2022-07-23T23:55:04;7.80;;;7.00;;
54545;SDS011;40444;45.184;9.850;2022-07-23T23:57:33;7.82;;;6.57;;
